Time;durP1;ratioP1;P1;durP2;ratioP2;P2;SDS_P1;SDS_P2;PMS_P1;PMS_P2;Temp;Humidity;BMP_temperature;BMP_pressure;BME280_temperature;BME280_humidity;BME280_pressure;Samples;Min_cycle;Max_cycle;Signal;HPM_P1;HPM_P2
2022/07/19 00:00:49;;;;;;;6.38;4.43;;;;;;;;;;5008922;28;20575;-85
2022/07/19 00:03:16;;;;;;;9.57;4.95;;;;;;;;;;5006106;28;20038;-85
2022/07/19 00:05:44;;;;;;;5.82;4.35;;;;;;;;;;5006468;28;20030;-85
2022/07/19 00:08:15;;;;;;;7.55;4.38;;;;;;;;;;4989779;28;20471;-85
2022/07/19 00:10:41;;;;;;;6.97;4.70;;;;;;;;;;4989890;28;20046;-85
2022/07/19 00:13:07;;;;;;;7.85;4.70;;;;;;;;;;4989897;28;20125;-85
2022/07/19 00:15:33;;;;;;;5.80;4.18;;;;;;;;;;4999845;28;20201;-85
2022/07/19 00:17:59;;;;;;;6.75;4.32;;;;;;;;;;4988543;28;20495;-85
2022/07/19 00:20:26;;;;;;;8.95;4.65;;;;;;;;;;4989819;28;20042;-85
2022/07/19 00:22:52;;;;;;;7.10;4.65;;;;;;;;;;4981307;28;20096;-85
2022/07/19 00:25:18;;;;;;;8.02;5.30;;;;;;;;;;4974606;28;20034;-85
2022/07/19 00:27:45;;;;;;;7.47;4.90;;;;;;;;;;5003313;28;20125;-85
2022/07/19 00:30:11;;;;;;;11.57;5.20;;;;;;;;;;4977099;28;20049;-85
2022/07/19 00:32:37;;;;;;;6.80;4.90;;;;;;;;;;4989732;28;20114;-85
2022/07/19 00:35:04;;;;;;;12.27;4.80;;;;;;;;;;4985965;28;20477;-85
2022/07/19 00:37:30;;;;;;;9.18;4.63;;;;;;;;;;4989052;28;20065;-85
2022/07/19 00:39:56;;;;;;;10.32;5.10;;;;;;;;;;4991688;28;20042;-85
2022/07/19 00:42:23;;;;;;;6.20;4.35;;;;;;;;;;4972291;28;20038;-85
2022/07/19 00:44:50;;;;;;;9.90;5.18;;;;;;;;;;4988411;28;20417;-85
2022/07/19 00:47:16;;;;;;;10.85;4.97;;;;;;;;;;5001025;28;20104;-85
2022/07/19 00:49:41;;;;;;;10.00;4.72;;;;;;;;;;4991491;28;20035;-85
2022/07/19 00:52:09;;;;;;;9.73;5.38;;;;;;;;;;4991499;28;20077;-85
2022/07/19 00:54:35;;;;;;;12.18;5.20;;;;;;;;;;4990628;28;20023;-85
2022/07/19 00:57:03;;;;;;;10.02;5.13;;;;;;;;;;4990617;28;20500;-85
2022/07/19 00:59:29;;;;;;;8.35;4.80;;;;;;;;;;5004761;28;20399;-85
2022/07/19 01:01:55;;;;;;;10.70;5.30;;;;;;;;;;4990725;28;20038;-85
2022/07/19 01:04:21;;;;;;;6.57;4.43;;;;;;;;;;4989743;28;20427;-85
2022/07/19 01:06:47;;;;;;;10.40;4.70;;;;;;;;;;4990714;28;20062;-85
2022/07/19 01:09:14;;;;;;;7.65;4.28;;;;;;;;;;4990994;28;20100;-85
2022/07/19 01:11:40;;;;;;;5.22;4.05;;;;;;;;;;4990860;28;20042;-85
2022/07/19 01:14:06;;;;;;;5.68;3.85;;;;;;;;;;5007098;28;20518;-85
2022/07/19 01:16:32;;;;;;;4.60;4.05;;;;;;;;;;4990819;28;20117;-85
2022/07/19 01:19:00;;;;;;;8.27;4.20;;;;;;;;;;4990432;28;20475;-85
2022/07/19 01:21:26;;;;;;;6.05;3.92;;;;;;;;;;4991131;28;20026;-85
2022/07/19 01:23:52;;;;;;;5.90;4.32;;;;;;;;;;4990737;28;20102;-85
2022/07/19 01:26:19;;;;;;;5.72;3.78;;;;;;;;;;4990577;28;20038;-85
2022/07/19 01:28:46;;;;;;;6.53;4.70;;;;;;;;;;4993243;28;20068;-85
2022/07/19 01:31:11;;;;;;;7.95;4.30;;;;;;;;;;5009247;28;20049;-85
2022/07/19 01:33:42;;;;;;;11.23;4.53;;;;;;;;;;4999304;28;20121;-85
2022/07/19 01:36:08;;;;;;;5.40;3.92;;;;;;;;;;5003585;28;20133;-85
2022/07/19 01:38:34;;;;;;;9.13;4.20;;;;;;;;;;5003913;28;20515;-85
2022/07/19 01:41:02;;;;;;;9.05;4.45;;;;;;;;;;5003976;28;20038;-85
2022/07/19 01:43:28;;;;;;;8.65;4.63;;;;;;;;;;5012345;28;20044;-85
2022/07/19 01:45:56;;;;;;;7.68;4.65;;;;;;;;;;5019869;28;20052;-85
2022/07/19 01:48:24;;;;;;;7.03;4.40;;;;;;;;;;5025943;28;20045;-85
2022/07/19 01:50:53;;;;;;;8.57;4.70;;;;;;;;;;5024579;28;20052;-85
2022/07/19 01:53:19;;;;;;;8.25;4.82;;;;;;;;;;5002856;28;20042;-85
2022/07/19 01:55:44;;;;;;;9.60;4.60;;;;;;;;;;5021684;28;20044;-85
2022/07/19 01:58:10;;;;;;;7.55;4.75;;;;;;;;;;5006349;28;20046;-85
2022/07/19 02:00:38;;;;;;;7.75;4.72;;;;;;;;;;5007241;28;20033;-85
2022/07/19 02:03:04;;;;;;;7.53;4.45;;;;;;;;;;5005762;28;20041;-85
2022/07/19 02:05:30;;;;;;;9.85;4.50;;;;;;;;;;5024743;28;20418;-85
2022/07/19 02:08:00;;;;;;;9.43;4.90;;;;;;;;;;5023477;28;20049;-85
2022/07/19 02:10:25;;;;;;;7.88;4.78;;;;;;;;;;5005887;28;20043;-85
2022/07/19 02:12:51;;;;;;;9.73;5.25;;;;;;;;;;5005136;28;20645;-85
2022/07/19 02:15:17;;;;;;;7.75;5.03;;;;;;;;;;5021460;28;20089;-85
2022/07/19 02:17:42;;;;;;;7.22;5.40;;;;;;;;;;5005831;28;20443;-85
2022/07/19 02:20:09;;;;;;;7.20;4.72;;;;;;;;;;5004290;28;20041;-85
2022/07/19 02:22:34;;;;;;;8.02;4.82;;;;;;;;;;5004582;28;20041;-85
2022/07/19 02:25:03;;;;;;;9.55;5.18;;;;;;;;;;5006813;28;20056;-84
2022/07/19 02:27:29;;;;;;;8.40;4.75;;;;;;;;;;5009205;28;20038;-85
2022/07/19 02:29:55;;;;;;;11.80;4.97;;;;;;;;;;5007344;28;20033;-85
2022/07/19 02:32:20;;;;;;;18.23;5.72;;;;;;;;;;5024346;28;20453;-85
2022/07/19 02:34:48;;;;;;;8.05;5.45;;;;;;;;;;5022042;28;20481;-85
2022/07/19 02:37:17;;;;;;;9.27;5.32;;;;;;;;;;5007085;28;20065;-86
2022/07/19 02:39:42;;;;;;;9.65;5.45;;;;;;;;;;5006431;28;20498;-85
2022/07/19 02:42:08;;;;;;;10.32;5.50;;;;;;;;;;5005925;28;20100;-85
2022/07/19 02:44:34;;;;;;;6.93;5.38;;;;;;;;;;5011303;28;20069;-85
2022/07/19 02:46:59;;;;;;;9.85;5.40;;;;;;;;;;5022671;28;20101;-85
2022/07/19 02:49:25;;;;;;;8.55;5.40;;;;;;;;;;5005388;28;20033;-85
2022/07/19 02:51:51;;;;;;;7.35;5.30;;;;;;;;;;5005774;28;20042;-85
2022/07/19 02:54:18;;;;;;;8.63;5.65;;;;;;;;;;5004442;28;20104;-85
2022/07/19 02:56:44;;;;;;;11.00;6.22;;;;;;;;;;5001717;28;20041;-85
2022/07/19 02:59:09;;;;;;;10.40;6.00;;;;;;;;;;5008905;28;20814;-85
2022/07/19 03:01:37;;;;;;;10.70;5.72;;;;;;;;;;5021474;28;20411;-85
2022/07/19 03:04:04;;;;;;;13.20;5.72;;;;;;;;;;5018847;28;20047;-86
2022/07/19 03:06:30;;;;;;;8.75;6.18;;;;;;;;;;5019715;28;20044;-85
2022/07/19 03:08:56;;;;;;;14.00;6.05;;;;;;;;;;5003322;28;20034;-85
2022/07/19 03:11:25;;;;;;;17.60;5.85;;;;;;;;;;5009842;28;20477;-85
2022/07/19 03:13:51;;;;;;;13.60;5.95;;;;;;;;;;5003952;28;20081;-85
2022/07/19 03:16:16;;;;;;;11.15;5.97;;;;;;;;;;5009653;28;20097;-85
2022/07/19 03:18:42;;;;;;;9.63;5.70;;;;;;;;;;5002337;28;20042;-85
2022/07/19 03:21:08;;;;;;;12.80;6.57;;;;;;;;;;5004621;28;20091;-85
2022/07/19 03:23:35;;;;;;;12.10;6.53;;;;;;;;;;4991933;28;20064;-85
2022/07/19 03:26:02;;;;;;;8.15;5.40;;;;;;;;;;5007272;28;20037;-86
2022/07/19 03:28:28;;;;;;;10.35;6.07;;;;;;;;;;5008719;28;20511;-85
2022/07/19 03:30:54;;;;;;;11.10;7.20;;;;;;;;;;5003346;28;20056;-85
2022/07/19 03:33:19;;;;;;;8.70;6.40;;;;;;;;;;5025012;28;20066;-85
2022/07/19 03:35:46;;;;;;;12.95;6.38;;;;;;;;;;5014815;28;20057;-85
2022/07/19 03:38:12;;;;;;;12.77;6.97;;;;;;;;;;5008294;28;20072;-85
2022/07/19 03:40:39;;;;;;;8.68;6.80;;;;;;;;;;4974171;28;20050;-85
2022/07/19 03:43:05;;;;;;;11.50;5.93;;;;;;;;;;4976346;28;20423;-85
2022/07/19 03:45:31;;;;;;;11.05;6.93;;;;;;;;;;4976612;28;20102;-85
2022/07/19 03:47:57;;;;;;;10.63;6.97;;;;;;;;;;4975103;28;20048;-85
2022/07/19 03:50:23;;;;;;;9.30;6.20;;;;;;;;;;4974879;28;20113;-86
2022/07/19 03:52:49;;;;;;;12.20;6.72;;;;;;;;;;4992031;28;20125;-85
2022/07/19 03:55:15;;;;;;;11.95;6.10;;;;;;;;;;4995426;28;20129;-86
2022/07/19 03:57:41;;;;;;;11.10;6.28;;;;;;;;;;4994859;28;20499;-85
2022/07/19 04:00:07;;;;;;;11.65;6.15;;;;;;;;;;4998344;28;20038;-85
2022/07/19 04:02:33;;;;;;;11.80;6.78;;;;;;;;;;5029273;28;20056;-85
2022/07/19 04:04:58;;;;;;;15.00;6.47;;;;;;;;;;5003605;28;20076;-85
2022/07/19 04:07:24;;;;;;;7.82;6.13;;;;;;;;;;4996398;28;20112;-85
2022/07/19 04:09:50;;;;;;;20.60;6.15;;;;;;;;;;5004199;28;20545;-85
2022/07/19 04:12:15;;;;;;;8.20;6.00;;;;;;;;;;5029775;28;20053;-86
2022/07/19 04:14:41;;;;;;;9.77;6.78;;;;;;;;;;5027411;28;20037;-86
2022/07/19 04:17:07;;;;;;;12.82;5.93;;;;;;;;;;5011126;28;20498;-86
2022/07/19 04:19:36;;;;;;;12.90;6.40;;;;;;;;;;5025178;28;20499;-86
2022/07/19 04:22:01;;;;;;;11.02;5.82;;;;;;;;;;5010372;28;20044;-86
2022/07/19 04:24:27;;;;;;;11.65;5.78;;;;;;;;;;5013053;28;20041;-86
2022/07/19 04:26:53;;;;;;;13.93;6.43;;;;;;;;;;5012545;28;20495;-86
2022/07/19 04:29:18;;;;;;;7.85;6.45;;;;;;;;;;5012199;28;20049;-86
2022/07/19 04:31:44;;;;;;;19.73;7.07;;;;;;;;;;5011786;28;20238;-86
2022/07/19 04:34:10;;;;;;;10.77;6.35;;;;;;;;;;5011316;28;20049;-86
2022/07/19 04:36:36;;;;;;;7.88;6.10;;;;;;;;;;5010176;28;20043;-86
2022/07/19 04:39:02;;;;;;;9.65;5.55;;;;;;;;;;5011654;28;20042;-86
2022/07/19 04:41:27;;;;;;;11.27;5.78;;;;;;;;;;5013108;28;20099;-86
2022/07/19 04:43:54;;;;;;;13.25;6.32;;;;;;;;;;5010981;28;20040;-86
2022/07/19 04:46:19;;;;;;;8.45;5.75;;;;;;;;;;5010794;28;20050;-86
2022/07/19 04:48:45;;;;;;;7.72;5.35;;;;;;;;;;5011381;28;20037;-86
2022/07/19 04:51:11;;;;;;;12.48;6.03;;;;;;;;;;5028945;28;20083;-86
2022/07/19 04:53:36;;;;;;;8.80;5.60;;;;;;;;;;5010152;28;20116;-86
2022/07/19 04:56:02;;;;;;;11.25;5.35;;;;;;;;;;5010333;28;20041;-86
2022/07/19 04:58:28;;;;;;;15.10;5.68;;;;;;;;;;5025685;28;20103;-86
2022/07/19 05:00:53;;;;;;;12.00;6.30;;;;;;;;;;4992377;28;20044;-86
2022/07/19 05:03:19;;;;;;;9.98;4.82;;;;;;;;;;5011613;28;20125;-86
2022/07/19 05:05:45;;;;;;;6.97;4.78;;;;;;;;;;5010485;28;20336;-86
2022/07/19 05:08:11;;;;;;;10.25;4.68;;;;;;;;;;5000502;28;20038;-86
2022/07/19 05:10:36;;;;;;;12.90;4.70;;;;;;;;;;4977808;28;20121;-87
2022/07/19 05:13:02;;;;;;;14.05;5.68;;;;;;;;;;4991158;28;20041;-86
2022/07/19 05:15:28;;;;;;;9.60;5.15;;;;;;;;;;4992478;28;20046;-86
2022/07/19 05:17:54;;;;;;;12.35;5.25;;;;;;;;;;4991395;28;20096;-86
2022/07/19 05:20:19;;;;;;;7.97;4.45;;;;;;;;;;4993130;28;20058;-87
2022/07/19 05:22:45;;;;;;;11.93;5.00;;;;;;;;;;4995369;28;20069;-86
2022/07/19 05:25:11;;;;;;;5.97;4.93;;;;;;;;;;4996404;28;20034;-86
2022/07/19 05:27:37;;;;;;;10.25;4.43;;;;;;;;;;4994426;28;20561;-86
2022/07/19 05:30:04;;;;;;;22.95;6.50;;;;;;;;;;5011750;28;20040;-86
2022/07/19 05:32:30;;;;;;;30.30;6.70;;;;;;;;;;5011937;28;20044;-86
2022/07/19 05:34:56;;;;;;;14.60;5.15;;;;;;;;;;4995485;28;20057;-86
2022/07/19 05:37:22;;;;;;;17.13;5.18;;;;;;;;;;4995482;28;20120;-86
2022/07/19 05:39:48;;;;;;;26.40;7.53;;;;;;;;;;4994548;28;20609;-86
2022/07/19 05:42:13;;;;;;;16.02;5.72;;;;;;;;;;4995390;28;20101;-86
2022/07/19 05:44:39;;;;;;;27.40;7.65;;;;;;;;;;5010017;28;20092;-86
2022/07/19 05:47:05;;;;;;;18.45;6.45;;;;;;;;;;4993191;28;20049;-86
2022/07/19 05:49:30;;;;;;;10.70;5.32;;;;;;;;;;4994219;28;20379;-86
2022/07/19 05:51:56;;;;;;;12.73;5.20;;;;;;;;;;4994213;28;20042;-86
2022/07/19 05:54:22;;;;;;;12.43;5.07;;;;;;;;;;4994139;28;20034;-86
2022/07/19 05:56:47;;;;;;;9.38;4.97;;;;;;;;;;5010088;28;20547;-86
2022/07/19 05:59:13;;;;;;;11.00;4.38;;;;;;;;;;4993599;28;20132;-86
2022/07/19 06:01:39;;;;;;;11.75;4.78;;;;;;;;;;4993282;28;20042;-86
2022/07/19 06:04:05;;;;;;;12.50;4.65;;;;;;;;;;4992901;28;20038;-86
2022/07/19 06:06:32;;;;;;;7.38;4.00;;;;;;;;;;4993513;28;20048;-86
2022/07/19 06:08:59;;;;;;;10.18;4.05;;;;;;;;;;4993803;28;20119;-86
2022/07/19 06:11:25;;;;;;;7.15;3.75;;;;;;;;;;4994045;28;20475;-86
2022/07/19 06:13:51;;;;;;;9.45;3.10;;;;;;;;;;5009441;28;20089;-86
2022/07/19 06:16:17;;;;;;;5.88;3.20;;;;;;;;;;4992442;28;20033;-86
2022/07/19 06:18:43;;;;;;;7.03;2.90;;;;;;;;;;4992213;28;20042;-86
2022/07/19 06:21:11;;;;;;;4.82;2.92;;;;;;;;;;4993353;28;20037;-86
2022/07/19 06:23:38;;;;;;;5.40;2.60;;;;;;;;;;4993405;28;20495;-86
2022/07/19 06:26:04;;;;;;;3.22;2.80;;;;;;;;;;4993563;28;20061;-86
2022/07/19 06:28:30;;;;;;;4.50;3.13;;;;;;;;;;5006436;28;20124;-86
2022/07/19 06:30:56;;;;;;;3.75;2.83;;;;;;;;;;5028170;28;20570;-86
2022/07/19 06:33:22;;;;;;;3.10;2.90;;;;;;;;;;5012610;28;20120;-86
2022/07/19 06:35:47;;;;;;;4.38;2.97;;;;;;;;;;5012340;28;20030;-86
2022/07/19 06:38:14;;;;;;;7.68;4.00;;;;;;;;;;5012605;28;20057;-86
2022/07/19 06:40:40;;;;;;;3.67;3.20;;;;;;;;;;4999263;28;20121;-87
2022/07/19 06:43:06;;;;;;;5.35;3.05;;;;;;;;;;4991591;28;20034;-86
2022/07/19 06:45:32;;;;;;;7.40;2.90;;;;;;;;;;5007954;28;20133;-86
2022/07/19 06:47:58;;;;;;;5.97;3.22;;;;;;;;;;5009408;28;20038;-86
2022/07/19 06:50:23;;;;;;;5.75;2.58;;;;;;;;;;4992222;28;20053;-86
2022/07/19 06:52:49;;;;;;;3.95;3.30;;;;;;;;;;4992505;28;20122;-86
2022/07/19 06:55:15;;;;;;;5.93;3.47;;;;;;;;;;4992004;28;20044;-86
2022/07/19 06:57:41;;;;;;;5.88;2.97;;;;;;;;;;4992260;28;20491;-86
2022/07/19 07:00:09;;;;;;;3.70;3.05;;;;;;;;;;4991598;28;20092;-86
2022/07/19 07:02:38;;;;;;;8.63;3.35;;;;;;;;;;4991928;28;20041;-87
2022/07/19 07:05:06;;;;;;;3.85;2.65;;;;;;;;;;4992484;28;20057;-87
2022/07/19 07:07:31;;;;;;;5.35;3.88;;;;;;;;;;4992970;28;20034;-86
2022/07/19 07:09:57;;;;;;;8.52;2.83;;;;;;;;;;4991568;28;20041;-85
2022/07/19 07:12:24;;;;;;;7.07;3.65;;;;;;;;;;5013396;28;20445;-85
2022/07/19 07:14:50;;;;;;;5.72;3.13;;;;;;;;;;5002220;28;20056;-87
2022/07/19 07:17:15;;;;;;;4.93;3.20;;;;;;;;;;5003819;28;20033;-86
2022/07/19 07:19:41;;;;;;;5.35;3.53;;;;;;;;;;4986853;28;20034;-87
2022/07/19 07:22:07;;;;;;;13.60;3.92;;;;;;;;;;4989028;28;20054;-87
2022/07/19 07:24:32;;;;;;;4.43;3.80;;;;;;;;;;4990649;28;20033;-86
2022/07/19 07:26:58;;;;;;;5.70;3.40;;;;;;;;;;4990146;28;20057;-87
2022/07/19 07:29:24;;;;;;;8.48;3.78;;;;;;;;;;4988370;28;20111;-86
2022/07/19 07:31:50;;;;;;;4.90;3.58;;;;;;;;;;4989805;28;20046;-87
2022/07/19 07:34:16;;;;;;;10.13;4.30;;;;;;;;;;5002070;28;20491;-87
2022/07/19 07:36:44;;;;;;;3.33;2.92;;;;;;;;;;5027991;28;20084;-87
2022/07/19 07:39:10;;;;;;;4.55;2.75;;;;;;;;;;5010350;28;20037;-87
2022/07/19 07:41:36;;;;;;;9.82;2.53;;;;;;;;;;5000004;28;20088;-86
2022/07/19 07:44:01;;;;;;;5.90;3.90;;;;;;;;;;4989349;28;20514;-88
2022/07/19 07:46:27;;;;;;;5.30;3.35;;;;;;;;;;4994514;28;20042;-87
2022/07/19 07:48:53;;;;;;;7.75;3.70;;;;;;;;;;5000232;28;20042;-87
2022/07/19 07:51:19;;;;;;;8.95;3.88;;;;;;;;;;4992415;28;20147;-87
2022/07/19 07:53:45;;;;;;;7.80;3.83;;;;;;;;;;4992393;28;20056;-87
2022/07/19 07:56:10;;;;;;;7.55;3.33;;;;;;;;;;4988060;28;20037;-87
2022/07/19 07:58:38;;;;;;;5.53;3.38;;;;;;;;;;4990498;28;20498;-87
2022/07/19 08:01:05;;;;;;;8.38;3.03;;;;;;;;;;4992639;28;20458;-86
2022/07/19 08:03:33;;;;;;;11.63;4.20;;;;;;;;;;5009719;28;20096;-87
2022/07/19 08:05:59;;;;;;;5.47;3.05;;;;;;;;;;5007391;28;20525;-88
2022/07/19 08:08:27;;;;;;;5.65;3.72;;;;;;;;;;5002855;28;20121;-87
2022/07/19 08:10:54;;;;;;;7.28;3.55;;;;;;;;;;4993737;28;20453;-86
2022/07/19 08:13:20;;;;;;;9.13;3.10;;;;;;;;;;5009173;28;20034;-85
2022/07/19 08:15:46;;;;;;;8.27;3.50;;;;;;;;;;4988010;28;20053;-85
2022/07/19 08:18:12;;;;;;;6.82;3.20;;;;;;;;;;4993830;28;20040;-84
2022/07/19 08:20:38;;;;;;;8.15;3.60;;;;;;;;;;4993728;28;20104;-85
2022/07/19 08:23:04;;;;;;;10.30;3.30;;;;;;;;;;4992941;28;20038;-86
2022/07/19 08:25:30;;;;;;;5.82;2.70;;;;;;;;;;5009725;28;20038;-86
2022/07/19 08:27:55;;;;;;;9.18;3.38;;;;;;;;;;5005495;28;20038;-86
2022/07/19 08:30:24;;;;;;;7.75;2.80;;;;;;;;;;5011859;28;20108;-86
2022/07/19 08:32:50;;;;;;;6.30;2.65;;;;;;;;;;4998306;28;20425;-86
2022/07/19 08:35:16;;;;;;;4.55;3.10;;;;;;;;;;5007894;28;20057;-85
2022/07/19 08:37:41;;;;;;;6.80;3.00;;;;;;;;;;5010683;28;20085;-86
2022/07/19 08:40:11;;;;;;;4.93;2.72;;;;;;;;;;5027649;28;20077;-86
2022/07/19 08:42:37;;;;;;;4.05;2.60;;;;;;;;;;5023896;28;20026;-86
2022/07/19 08:45:08;;;;;;;6.35;2.97;;;;;;;;;;5011098;28;20545;-85
2022/07/19 08:47:38;;;;;;;6.57;2.50;;;;;;;;;;5028099;28;20588;-86
2022/07/19 08:50:06;;;;;;;5.60;3.15;;;;;;;;;;5012652;28;20128;-85
2022/07/19 08:52:33;;;;;;;4.57;2.67;;;;;;;;;;5012323;28;20340;-86
2022/07/19 08:54:59;;;;;;;4.15;2.67;;;;;;;;;;5005417;28;20045;-85
2022/07/19 09:00:10;;;;;;;5.55;2.88;;;;;;;;;;5026821;28;20047;-86
2022/07/19 09:02:39;;;;;;;4.80;2.55;;;;;;;;;;5007864;28;20053;-85
2022/07/19 09:05:10;;;;;;;5.20;3.53;;;;;;;;;;5011925;28;20037;-86
2022/07/19 09:07:38;;;;;;;7.72;3.10;;;;;;;;;;4994047;28;20065;-86
2022/07/19 09:10:18;;;;;;;5.25;2.80;;;;;;;;;;4986881;28;20038;-85
2022/07/19 09:13:15;;;;;;;6.68;3.00;;;;;;;;;;4973204;28;20577;-86
2022/07/19 09:15:49;;;;;;;5.13;3.08;;;;;;;;;;4975448;28;20034;-86
2022/07/19 09:18:21;;;;;;;7.28;3.30;;;;;;;;;;4987807;28;20112;-86
2022/07/19 09:20:53;;;;;;;6.45;2.50;;;;;;;;;;4977396;28;20042;-86
2022/07/19 09:23:19;;;;;;;6.07;2.60;;;;;;;;;;4975798;28;20045;-85
2022/07/19 09:25:51;;;;;;;5.20;3.00;;;;;;;;;;4984523;28;20030;-85
2022/07/19 09:28:18;;;;;;;6.10;2.92;;;;;;;;;;4991141;28;20046;-86
2022/07/19 09:30:52;;;;;;;3.65;2.80;;;;;;;;;;4988727;28;20045;-86
2022/07/19 09:33:20;;;;;;;5.22;2.78;;;;;;;;;;4988067;28;20045;-85
2022/07/19 09:35:51;;;;;;;4.75;3.00;;;;;;;;;;4970555;28;20062;-87
2022/07/19 09:38:28;;;;;;;5.47;2.92;;;;;;;;;;4971164;28;20050;-86
2022/07/19 09:41:09;;;;;;;5.57;2.78;;;;;;;;;;4971743;28;20043;-87
2022/07/19 09:44:02;;;;;;;6.25;3.00;;;;;;;;;;4970828;28;20129;-86
2022/07/19 09:46:38;;;;;;;8.57;2.53;;;;;;;;;;4987575;28;20053;-86
2022/07/19 09:49:14;;;;;;;3.10;2.67;;;;;;;;;;4972190;28;20400;-86
2022/07/19 09:51:42;;;;;;;4.32;2.65;;;;;;;;;;4969412;28;20050;-85
2022/07/19 09:54:11;;;;;;;4.38;3.30;;;;;;;;;;4970940;28;20559;-86
2022/07/19 09:56:39;;;;;;;5.93;2.80;;;;;;;;;;4970649;28;20031;-87
2022/07/19 09:59:07;;;;;;;5.10;2.83;;;;;;;;;;4971782;28;20038;-86
2022/07/19 10:01:37;;;;;;;6.18;3.10;;;;;;;;;;4988449;28;20038;-86
2022/07/19 10:04:09;;;;;;;5.43;3.00;;;;;;;;;;4973032;28;20451;-86
2022/07/19 10:06:37;;;;;;;4.00;2.72;;;;;;;;;;4972678;28;20109;-86
2022/07/19 10:09:04;;;;;;;4.32;2.50;;;;;;;;;;4975226;28;20084;-87
2022/07/19 10:11:32;;;;;;;5.75;2.50;;;;;;;;;;4975727;28;20113;-88
2022/07/19 10:13:59;;;;;;;5.78;2.72;;;;;;;;;;4974962;28;20039;-87
2022/07/19 10:16:47;;;;;;;5.05;3.22;;;;;;;;;;4975872;28;20042;-88
2022/07/19 10:19:41;;;;;;;6.50;2.58;;;;;;;;;;4991050;28;20050;-87
2022/07/19 10:22:11;;;;;;;3.45;2.65;;;;;;;;;;4991169;28;20117;-87
2022/07/19 10:24:52;;;;;;;3.78;2.63;;;;;;;;;;4990208;28;20038;-87
2022/07/19 10:27:36;;;;;;;7.00;2.92;;;;;;;;;;5006799;28;20397;-85
2022/07/19 10:30:08;;;;;;;4.70;2.40;;;;;;;;;;4973354;28;20066;-86
2022/07/19 10:32:34;;;;;;;4.57;2.85;;;;;;;;;;4989246;28;20122;-82
2022/07/19 10:35:23;;;;;;;5.45;2.50;;;;;;;;;;4975650;28;20138;-85
2022/07/19 10:38:01;;;;;;;4.03;3.00;;;;;;;;;;4974898;28;20496;-85
2022/07/19 10:40:48;;;;;;;6.35;2.92;;;;;;;;;;5006114;28;20034;-85
2022/07/19 10:43:27;;;;;;;3.63;2.97;;;;;;;;;;4974239;28;20045;-84
2022/07/19 10:45:56;;;;;;;5.45;2.85;;;;;;;;;;4972911;28;20122;-85
2022/07/19 10:48:41;;;;;;;4.63;2.70;;;;;;;;;;5006431;28;20114;-85
2022/07/19 10:51:11;;;;;;;4.78;2.80;;;;;;;;;;4973491;28;20046;-86
2022/07/19 10:53:41;;;;;;;3.25;2.72;;;;;;;;;;4989417;28;20547;-86
2022/07/19 10:56:25;;;;;;;3.70;2.85;;;;;;;;;;5005989;28;20052;-85
2022/07/19 10:58:58;;;;;;;7.80;2.85;;;;;;;;;;4973793;28;20074;-86
2022/07/19 11:01:25;;;;;;;7.30;3.00;;;;;;;;;;4969825;28;25229;-86
2022/07/19 11:03:53;;;;;;;3.35;2.97;;;;;;;;;;4990130;28;20034;-86
2022/07/19 11:06:24;;;;;;;5.10;2.88;;;;;;;;;;4987421;28;20510;-85
2022/07/19 11:08:58;;;;;;;3.35;3.05;;;;;;;;;;5004133;28;20045;-85
2022/07/19 11:11:26;;;;;;;;;;;;;;;;;;5002036;28;20132;-85
2022/07/19 11:13:57;;;;;;;6.20;3.50;;;;;;;;;;5003825;28;19917;-85
2022/07/19 11:16:26;;;;;;;3.75;2.83;;;;;;;;;;5027580;28;20049;-85
2022/07/19 11:18:52;;;;;;;3.88;3.17;;;;;;;;;;5010360;28;20076;-84
2022/07/19 11:21:17;;;;;;;4.22;2.97;;;;;;;;;;5011349;28;20053;-85
2022/07/19 11:23:46;;;;;;;5.05;2.58;;;;;;;;;;5028045;28;20045;-85
2022/07/19 11:26:15;;;;;;;3.13;2.58;;;;;;;;;;5011924;28;20048;-85
2022/07/19 11:28:42;;;;;;;3.13;2.70;;;;;;;;;;4994646;28;20034;-85
2022/07/19 11:31:20;;;;;;;3.85;2.45;;;;;;;;;;4996933;28;20061;-85
2022/07/19 11:33:47;;;;;;;7.13;2.70;;;;;;;;;;4991958;28;20117;-84
2022/07/19 11:36:17;;;;;;;4.20;2.60;;;;;;;;;;4990233;28;20049;-85
2022/07/19 11:38:48;;;;;;;4.80;3.00;;;;;;;;;;4989787;28;20045;-86
2022/07/19 11:41:22;;;;;;;4.22;2.35;;;;;;;;;;4992464;28;20106;-85
2022/07/19 11:44:03;;;;;;;3.97;2.88;;;;;;;;;;4986834;28;20644;-84
2022/07/19 11:46:40;;;;;;;3.55;2.78;;;;;;;;;;4991468;28;20046;-85
2022/07/19 11:49:07;;;;;;;3.08;2.78;;;;;;;;;;4990291;28;20092;-85
2022/07/19 11:51:34;;;;;;;3.25;2.95;;;;;;;;;;4992383;28;20038;-85
2022/07/19 11:54:01;;;;;;;5.78;2.88;;;;;;;;;;4988078;28;20053;-85
2022/07/19 11:56:29;;;;;;;5.18;3.30;;;;;;;;;;4984336;28;20038;-86
2022/07/19 11:58:57;;;;;;;4.40;3.08;;;;;;;;;;4994493;28;20122;-85
2022/07/19 12:01:31;;;;;;;5.50;3.25;;;;;;;;;;4990068;28;20030;-85
2022/07/19 12:04:03;;;;;;;4.53;2.90;;;;;;;;;;4990791;28;20057;-85
2022/07/19 12:06:47;;;;;;;3.97;2.72;;;;;;;;;;4991643;28;20269;-85
2022/07/19 12:09:15;;;;;;;4.13;2.73;;;;;;;;;;5007481;28;20463;-85
2022/07/19 12:11:43;;;;;;;5.55;2.95;;;;;;;;;;5006957;28;20048;-85
2022/07/19 12:14:19;;;;;;;4.75;3.20;;;;;;;;;;4987127;28;20064;-86
2022/07/19 12:16:47;;;;;;;5.78;2.85;;;;;;;;;;5001553;28;20052;-85
2022/07/19 12:19:17;;;;;;;3.63;3.33;;;;;;;;;;4989214;28;20135;-86
2022/07/19 12:21:42;;;;;;;3.30;3.00;;;;;;;;;;4991181;28;20037;-86
2022/07/19 12:24:12;;;;;;;3.80;3.17;;;;;;;;;;4992401;28;20050;-85
2022/07/19 12:26:43;;;;;;;3.50;2.80;;;;;;;;;;5006389;28;20057;-84
2022/07/19 12:29:20;;;;;;;3.88;3.15;;;;;;;;;;4990656;28;20034;-84
2022/07/19 12:31:47;;;;;;;3.85;3.55;;;;;;;;;;4991156;28;20034;-84
2022/07/19 12:34:14;;;;;;;5.93;3.70;;;;;;;;;;4991325;28;20041;-85
2022/07/19 12:36:40;;;;;;;7.47;3.33;;;;;;;;;;4990633;28;20035;-86
2022/07/19 12:39:23;;;;;;;4.45;3.08;;;;;;;;;;4989962;28;20116;-86
2022/07/19 12:42:03;;;;;;;3.50;3.20;;;;;;;;;;4990027;28;20030;-86
2022/07/19 12:44:29;;;;;;;4.97;2.90;;;;;;;;;;4991057;28;20048;-86
2022/07/19 12:46:56;;;;;;;7.70;3.38;;;;;;;;;;4989333;28;20042;-87
2022/07/19 12:49:23;;;;;;;3.88;3.22;;;;;;;;;;4991028;28;20049;-87
2022/07/19 12:51:50;;;;;;;3.47;3.17;;;;;;;;;;4990478;28;20041;-87
2022/07/19 12:54:15;;;;;;;4.60;3.28;;;;;;;;;;5007211;28;20524;-87
2022/07/19 12:56:41;;;;;;;5.65;2.88;;;;;;;;;;5007738;28;20117;-87
2022/07/19 13:01:51;;;;;;;3.78;3.35;;;;;;;;;;5007928;28;20045;-87
2022/07/19 13:04:17;;;;;;;3.35;2.85;;;;;;;;;;4987876;28;20495;-87
2022/07/19 13:06:43;;;;;;;8.35;3.45;;;;;;;;;;4990132;28;20041;-86
2022/07/19 13:09:09;;;;;;;4.95;3.03;;;;;;;;;;4991434;28;20046;-87
2022/07/19 13:11:35;;;;;;;4.63;3.63;;;;;;;;;;4991047;28;20471;-86
2022/07/19 13:14:02;;;;;;;8.75;3.22;;;;;;;;;;4978967;28;20034;-86
2022/07/19 13:16:27;;;;;;;4.22;3.78;;;;;;;;;;4998721;28;20037;-88
2022/07/19 13:18:53;;;;;;;4.35;3.83;;;;;;;;;;4989240;28;20042;-87
2022/07/19 13:21:22;;;;;;;8.25;3.65;;;;;;;;;;4989824;28;20046;-86
2022/07/19 13:23:48;;;;;;;8.18;3.67;;;;;;;;;;4989715;28;20050;-87
2022/07/19 13:26:13;;;;;;;3.75;3.35;;;;;;;;;;4990758;28;20046;-87
2022/07/19 13:28:39;;;;;;;8.07;4.10;;;;;;;;;;4989182;28;20061;-87
2022/07/19 13:31:05;;;;;;;4.95;3.70;;;;;;;;;;4990097;28;20065;-87
2022/07/19 13:33:31;;;;;;;7.32;3.50;;;;;;;;;;4990762;28;20030;-87
2022/07/19 13:35:57;;;;;;;7.25;3.63;;;;;;;;;;4989731;28;20061;-87
2022/07/19 13:38:22;;;;;;;7.70;3.75;;;;;;;;;;5005541;28;20038;-88
2022/07/19 13:40:48;;;;;;;5.13;3.58;;;;;;;;;;4982776;28;20521;-88
2022/07/19 13:43:14;;;;;;;8.25;3.75;;;;;;;;;;4994517;28;20041;-86
2022/07/19 13:45:40;;;;;;;6.20;4.03;;;;;;;;;;4985597;28;20457;-87
2022/07/19 13:48:06;;;;;;;4.85;3.72;;;;;;;;;;4992595;28;20046;-87
2022/07/19 13:50:32;;;;;;;5.15;3.40;;;;;;;;;;4993540;28;20041;-87
2022/07/19 13:52:59;;;;;;;3.85;3.33;;;;;;;;;;4992999;28;20073;-88
2022/07/19 13:55:32;;;;;;;8.23;3.70;;;;;;;;;;4992986;28;20049;-86
2022/07/19 13:57:58;;;;;;;3.80;3.38;;;;;;;;;;4992277;28;20133;-87
2022/07/19 14:00:24;;;;;;;6.95;3.90;;;;;;;;;;4983416;28;20038;-86
2022/07/19 14:02:50;;;;;;;6.22;3.17;;;;;;;;;;4991739;28;20046;-87
2022/07/19 14:05:15;;;;;;;5.72;3.35;;;;;;;;;;4983357;28;20513;-87
2022/07/19 14:07:43;;;;;;;7.80;3.33;;;;;;;;;;4981636;28;20523;-87
2022/07/19 14:10:09;;;;;;;5.30;3.22;;;;;;;;;;4992313;28;20042;-87
2022/07/19 14:12:35;;;;;;;4.75;3.38;;;;;;;;;;4989303;28;20044;-87
2022/07/19 14:15:01;;;;;;;5.32;3.40;;;;;;;;;;4990385;28;20157;-87
2022/07/19 14:17:27;;;;;;;4.88;3.63;;;;;;;;;;4988193;28;20061;-88
2022/07/19 14:19:53;;;;;;;6.18;3.90;;;;;;;;;;4979416;28;20566;-87
2022/07/19 14:22:19;;;;;;;4.55;3.30;;;;;;;;;;4984805;28;20041;-88
2022/07/19 14:24:46;;;;;;;6.18;3.70;;;;;;;;;;4990752;28;20096;-87
2022/07/19 14:27:12;;;;;;;3.95;3.63;;;;;;;;;;4992755;28;20037;-86
2022/07/19 14:29:38;;;;;;;7.13;3.67;;;;;;;;;;4992481;28;20084;-86
2022/07/19 14:32:04;;;;;;;5.05;3.92;;;;;;;;;;4983893;28;20147;-87
2022/07/19 14:34:30;;;;;;;4.68;4.10;;;;;;;;;;4994372;28;20327;-86
2022/07/19 14:36:58;;;;;;;7.72;3.75;;;;;;;;;;4984998;28;20046;-88
2022/07/19 14:39:28;;;;;;;6.85;3.67;;;;;;;;;;4994027;28;20510;-88
2022/07/19 14:41:53;;;;;;;6.80;4.20;;;;;;;;;;4993016;28;20042;-87
2022/07/19 14:44:19;;;;;;;4.75;3.83;;;;;;;;;;4992965;28;20062;-87
2022/07/19 14:46:45;;;;;;;11.30;3.63;;;;;;;;;;4993804;28;20410;-86
2022/07/19 14:49:11;;;;;;;7.95;4.20;;;;;;;;;;4993223;28;20553;-87